Oak City, Utah
Current Conditions -  °F | °C
As of 3:55 PM on Friday 28 Nov 2014 (Local Time) from KDTA Reporting Station
Clear Clear  
Wind Chill: 64°   Ceiling: Unl
Heat Index: 64°   Visibility: 10mi
Dew Point: 13°   Wind: 14mph
Humidity: 14%   Direction: 190°S
Pressure: 29.92"   Gusts: NA
Location:  39.37°N, 112.34°W
Report Text: KDTA 282255Z AUTO 19012KT 10SM CLR 18/M10 A2992 RMK AO1 T01771104
Loading
Personal Weather Stations






























Interactive Weather Map New forecast layout! Learn more

10-Day Weather Forecast

Advertisements
Track Severe Weather on mobile